Observations for PARMA, Italy (LIMP)

LIMP 191950Z 13004KT 100V160 2500 BR SCT010 15/15 Q1015 
LIMP 191850Z VRB01KT 3500 BR SCT010 16/16 Q1015 
LIMP 191750Z 02002KT 3500 BR SCT010 17/17 Q1015 
LIMP 191650Z VRB02KT 2500 BR SCT010 17/17 Q1015 
LIMP 191550Z 09004KT 050V110 5000 BR SCT050 19/19 Q1014 
LIMP 191450Z 10006KT 070V130 5000 BR SCT050 20/19 Q1014 
LIMP 191350Z 08004KT 350V110 3000 BR SCT050 20/19 Q1014 
LIMP 191250Z 10007KT 3000 BR NSC 19/19 Q1015
LIMP 191150Z 08008KT 050V110 4000 BR SCT060 17/17 Q1015 
LIMP 191125Z 07009KT 040V100 4000 BR SCT050 17/17 Q1015
LIMP 191050Z 09008KT 060V130 2500 -RA BR BKN050 16/16 Q1016 
LIMP 190950Z 08009KT 040V100 2000 BR BKN050 15/15 Q1015 
LIMP 190850Z 09005KT 050V150 5000 2000N BR BKN050 15/15 Q1015   
LIMP 190750Z 09006KT 4000 BR BKN050 14/14 Q1015 
LIMP 190650Z 06005KT 2500 BR SCT050 14/14 Q1015 
LIMP 190550Z 10002KT 2500 BR BKN030 14/14 Q1015 
LIMP 190451Z 09005KT 5000 -RA BR OVC030 14/14 Q1015
LIMP 182050Z 15005KT 9999 SCT060 15/15 Q1017
LIMP 181950Z 11002KT 9999 SCT060 15/15 Q1017